Airfield :
LOGIN :

Register | Disclaimer

   EN    FR    IT 

 










Legend :    VFR   Marginal VFR   IFR   Intensive IFR   Very Intensive IFR
Visi :
Ceiling :
>= 8 km
>= 3000ft
5 to 8 km
1000 to 3000 ft
1500m to 5 km
500 to 1000 ft
800 to 1500m
200 to 500 ft
< 800m
< 200 ft
Symbols :   Thunderstorms  Fog  Heavy snow  Heavy precipitations  Wind > 20 kt
SIGMETs :     Misc.  Thunderstorms  Icing  Turbulence  Mountain Waves  Volcanic Ashes







- Airport Elevation : 135 ft
- IATA code : EDI
- Download approach charts


EGPH - Edinburgh

CURRENT METAR :
  • 121550Z 10007KT 060V150 9999 FEW022 07/03 Q1017

EXPIRED METARs :
  • 121520Z 13008KT 100V210 9999 FEW022 08/03 Q1017
  • 121450Z 15012KT 9999 FEW022 08/03 Q1017
  • 121420Z 13007KT 9999 FEW021 08/04 Q1017
  • 121350Z 13012KT 9999 FEW021 08/04 Q1018
  • 121320Z 14012KT 9999 SCT021 07/04 Q1018

TAF TAF EGPH
Valid from the 12 at 12:00 until the 13 at 12:00 UTC


121056Z 1212/1312 10008KT 9999 SCT030
TEMPO 1218/1310 11015G25KT
ATIS : +44 131 339 2823
No reported NOTAMs for that airfield.



MET'MAP, your aeronautical weather chart ! - Copyright ORBIFLY December 2007 - Disclaimer

ORBIFLY MET'MAP TEAM :

Programming & Development : Alexandra Zaïnal
Concept & Development : Baudouin d'Aumeries
Co-Development & Prog : Marc-Olivier Méhu
Technical & hardware support : Manuel Goepfert

Contact : metmap@orbifly.com




SOURCES & CREDITS :

   NOAA